Sea Thames — V2BV1 — position and weather

sailwx.info

Track history (hours):
 
Tides and Currents Weather Stations Pressure Air Temp Water Temp Dewpoint Dewpoint Depression Visibility Wind Speed Wind Dir Waves Ship Positions

Sea Thames

Last reported at 2016-Jun-26 09:33 UTC. Time now 2016-Jun-26 10:10 UTC.
Position N 53°50' E 008°49'.

Length 87 m; draft 3.8 m.

Type: Cargo ship. MMSI: 304933000.

Date/timePositionNaut miles runAvg speedWind from/ knotsBaromVisibWave heightAir tempDewpointWater temp
2016-Jun-26 09:33N 53°50' E 008°49'5 5.3
2016-Jun-26 08:33N 53°53' E 008°42'5 4.8
2016-Jun-26 07:33N 53°57' E 008°37'7 6.7
2016-Jun-26 06:32N 53°59' E 008°25'7 7.1
2016-Jun-26 05:33N 53°59' E 008°14'8 7.5
2016-Jun-26 04:33N 53°58' E 008°01'6 6.2
2016-Jun-26 03:33N 53°56' E 007°51'8 6.8
2016-Jun-26 02:21N 53°55' E 007°37'5 6.8
2016-Jun-26 01:33N 53°53' E 007°28'7 7.0
2016-Jun-26 00:31N 53°52' E 007°16'6 6.3
2016-Jun-25 23:33N 53°50' E 007°06'8 7.8
2016-Jun-25 22:33N 53°48' E 006°53'6 6.3
2016-Jun-25 21:33N 53°47' E 006°43'7 6.7
2016-Jun-25 20:33N 53°46' E 006°32'8 6.3
2016-Jun-25 19:15N 53°44' E 006°18'5 5.8
2016-Jun-25 18:26N 53°42' E 006°11'5 5.5
2016-Jun-25 17:29N 53°40' E 006°03'5 5.6
2016-Jun-25 16:33N 53°39' E 005°54'6 5.6
2016-Jun-25 15:32N 53°37' E 005°45'6 5.8
2016-Jun-25 14:33N 53°35' E 005°36'7 7.3
2016-Jun-25 13:33N 53°33' E 005°24'9 8.7
2016-Jun-25 12:33N 53°30' E 005°11'43 9.7
2016-Jun-25 08:07N 52°59' E 004°21'1610.5
2016-Jun-25 06:33N 52°45' E 004°06'57 8.9
2016-Jun-25 00:10N 51°55' E 003°23'18 6.6
2016-Jun-24 21:26N 51°37' E 003°22'910.0
2016-Jun-24 20:33N 51°29' E 003°29'9 9.4
2016-Jun-24 19:33N 51°24' E 003°42'9 9.4
2016-Jun-24 18:33N 51°23' E 003°57'6 6.1
2016-Jun-24 17:33N 51°22' E 004°06'7 6.5
2016-Jun-24 16:33N 51°21' E 004°16'5 4.5
2016-Jun-24 15:33N 51°17' E 004°20'0 0.0
2016-Jun-24 14:33N 51°17' E 004°20'2 1.6
2016-Jun-24 13:33N 51°15' E 004°21'2 1.7
2016-Jun-24 12:27N 51°16' E 004°25'0 0.0
2016-Jun-24 11:26N 51°16' E 004°25'0 0.0
2016-Jun-24 10:27N 51°16' E 004°25'0 0.0
2016-Jun-24 09:31N 51°16' E 004°25'0 0.0
2016-Jun-24 08:33N 51°16' E 004°25'0 0.0
2016-Jun-24 07:31N 51°16' E 004°25'0 0.0
2016-Jun-24 04:33N 51°16' E 004°25'0 0.0
2016-Jun-24 03:32N 51°16' E 004°25'0 0.0
2016-Jun-24 02:25N 51°16' E 004°25'0 0.0
2016-Jun-24 01:32N 51°16' E 004°25'0 0.0
2016-Jun-24 00:31N 51°16' E 004°25'0 0.0
2016-Jun-23 23:29N 51°16' E 004°25'0 0.0
2016-Jun-23 22:31N 51°16' E 004°25'0 0.0
2016-Jun-23 21:29N 51°16' E 004°25'0 0.0
2016-Jun-23 20:33N 51°16' E 004°25'0 0.0
2016-Jun-23 19:28N 51°16' E 004°25'0 0.0
2016-Jun-23 18:33N 51°16' E 004°25'0 0.0
2016-Jun-23 17:33N 51°16' E 004°25'0 0.0
2016-Jun-23 16:33N 51°16' E 004°25'0 0.0
2016-Jun-23 15:26N 51°16' E 004°25'0 0.0
2016-Jun-23 14:31N 51°16' E 004°25'0 0.0
2016-Jun-23 13:31N 51°16' E 004°25'0 0.0
2016-Jun-23 12:32N 51°16' E 004°25'0 0.0
2016-Jun-23 11:26N 51°16' E 004°25'0 0.0
2016-Jun-23 10:33N 51°16' E 004°25'2 1.5
2016-Jun-23 09:33N 51°14' E 004°26'4 4.1
2016-Jun-23 08:33N 51°14' E 004°32'1 0.1
2016-Jun-22 20:21N 51°13' E 004°33'0 0.0
2016-Jun-22 03:16N 51°13' E 004°33'10 0.2
2016-Jun-19 23:21N 51°10' E 004°48'6 7.1
2016-Jun-19 22:31N 51°12' E 004°39'5 4.8
2016-Jun-19 21:33N 51°14' E 004°32'1 0.7
2016-Jun-19 20:30N 51°14' E 004°31'4 3.8
2016-Jun-19 19:33N 51°14' E 004°26'2 1.8
2016-Jun-19 18:31N 51°15' E 004°23'0 0.0
2016-Jun-19 17:27N 51°15' E 004°23'0 0.0
2016-Jun-19 16:31N 51°15' E 004°23'0 0.0
2016-Jun-19 15:31N 51°15' E 004°23'0 0.0
2016-Jun-19 14:30N 51°15' E 004°23'0 0.0
2016-Jun-19 13:30N 51°15' E 004°23'0 0.0
2016-Jun-19 12:29N 51°15' E 004°23'0 0.0
2016-Jun-19 11:31N 51°15' E 004°23'0 0.0
2016-Jun-19 10:29N 51°15' E 004°23'0 0.0
2016-Jun-19 09:32N 51°15' E 004°23'0 0.0
2016-Jun-19 08:27N 51°15' E 004°23'0 0.0
2016-Jun-19 07:32N 51°15' E 004°23'0 0.0
2016-Jun-19 06:32N 51°15' E 004°23'0 0.0
2016-Jun-19 05:32N 51°15' E 004°23'0 0.0
2016-Jun-19 04:28N 51°15' E 004°23'0 0.0
2016-Jun-19 03:33N 51°15' E 004°23'0 0.0
2016-Jun-19 02:28N 51°15' E 004°23'0 0.0
2016-Jun-19 01:32N 51°15' E 004°23'0 0.0
2016-Jun-19 00:26N 51°15' E 004°23'0 0.0
2016-Jun-18 23:31N 51°15' E 004°23'0 0.0
2016-Jun-18 22:26N 51°15' E 004°23'0 0.0
2016-Jun-18 21:31N 51°15' E 004°23'0 0.0
2016-Jun-18 20:26N 51°15' E 004°23'0 0.0
2016-Jun-18 19:31N 51°15' E 004°23'0 0.0
2016-Jun-18 18:30N 51°15' E 004°23'0 0.0
2016-Jun-18 17:31N 51°15' E 004°23'0 0.0
2016-Jun-18 16:34N 51°15' E 004°23'2 2.5
2016-Jun-18 15:33N 51°17' E 004°20'1 1.2
2016-Jun-18 14:33N 51°17' E 004°19'4 4.0
2016-Jun-18 13:34N 51°21' E 004°15'7 7.0
2016-Jun-18 12:34N 51°22' E 004°04'6 6.3
2016-Jun-18 11:33N 51°24' E 003°54'1010.3
2016-Jun-18 10:33N 51°25' E 003°38'1110.8
2016-Jun-18 09:33N 51°32' E 003°25'134 7.3
2016-Jun-17 15:14N 53°33' E 005°01'5 7.0
2016-Jun-17 14:33N 53°35' E 005°09'8 8.4
2016-Jun-17 13:33N 53°38' E 005°22'1010.0
2016-Jun-17 12:33N 53°41' E 005°38'1010.5
2016-Jun-17 11:33N 53°44' E 005°55'1010.4
2016-Jun-17 10:33N 53°47' E 006°12'10 9.9
2016-Jun-17 09:33N 53°50' E 006°28'9 9.4
2016-Jun-17 08:33N 53°52' E 006°43'9 8.7
2016-Jun-17 07:33N 53°54' E 006°58'9 8.6
2016-Jun-17 06:33N 53°56' E 007°12'8 8.3
2016-Jun-17 05:31N 53°58' E 007°26'8 8.7
2016-Jun-17 04:33N 54°02' E 007°39'9 9.2
2016-Jun-17 03:33N 54°01' E 007°55'1010.0
2016-Jun-17 02:33N 54°01' E 008°12'1211.7
2016-Jun-17 01:33N 53°58' E 008°31'1211.8
2016-Jun-17 00:33N 53°51' E 008°47'1010.3
2016-Jun-16 23:34N 53°52' E 009°04'4 3.6
2016-Jun-16 22:34N 53°54' E 009°09'0 0.3
2016-Jun-16 21:33N 53°54' E 009°10'0 0.0
2016-Jun-16 20:33N 53°54' E 009°10'0 0.0
2016-Jun-16 19:33N 53°54' E 009°10'0 0.0
2016-Jun-16 18:28N 53°54' E 009°10'0 0.0
2016-Jun-16 17:32N 53°54' E 009°10'0 0.0
2016-Jun-16 16:34N 53°54' E 009°10'5 5.3
2016-Jun-16 15:33N 53°58' E 009°16'32 6.4
2016-Jun-16 10:30N 54°21' E 009°56'7 7.8
2016-Jun-16 09:33N 54°22' E 010°08'  
Track history (hours):
 
Tides and Currents Weather Stations Pressure Air Temp Water Temp Dewpoint Dewpoint Depression Visibility Wind Speed Wind Dir Waves Ship Positions

Sea Thames

Last reported at 2016-Jun-26 09:33 UTC. Time now 2016-Jun-26 10:10 UTC.
Position N 53°50' E 008°49'.

Length 87 m; draft 3.8 m.

Type: Cargo ship. MMSI: 304933000.

Date/timePositionNaut miles runAvg speedWind from/ knotsBaromVisibWave heightAir tempDewpointWater temp
2016-Jun-26 09:33N 53°50' E 008°49'5 5.3
2016-Jun-26 08:33N 53°53' E 008°42'5 4.8
2016-Jun-26 07:33N 53°57' E 008°37'7 6.7
2016-Jun-26 06:32N 53°59' E 008°25'7 7.1
2016-Jun-26 05:33N 53°59' E 008°14'8 7.5
2016-Jun-26 04:33N 53°58' E 008°01'6 6.2
2016-Jun-26 03:33N 53°56' E 007°51'8 6.8
2016-Jun-26 02:21N 53°55' E 007°37'5 6.8
2016-Jun-26 01:33N 53°53' E 007°28'7 7.0
2016-Jun-26 00:31N 53°52' E 007°16'6 6.3
2016-Jun-25 23:33N 53°50' E 007°06'8 7.8
2016-Jun-25 22:33N 53°48' E 006°53'6 6.3
2016-Jun-25 21:33N 53°47' E 006°43'7 6.7
2016-Jun-25 20:33N 53°46' E 006°32'8 6.3
2016-Jun-25 19:15N 53°44' E 006°18'5 5.8
2016-Jun-25 18:26N 53°42' E 006°11'5 5.5
2016-Jun-25 17:29N 53°40' E 006°03'5 5.6
2016-Jun-25 16:33N 53°39' E 005°54'6 5.6
2016-Jun-25 15:32N 53°37' E 005°45'6 5.8
2016-Jun-25 14:33N 53°35' E 005°36'7 7.3
2016-Jun-25 13:33N 53°33' E 005°24'9 8.7
2016-Jun-25 12:33N 53°30' E 005°11'43 9.7
2016-Jun-25 08:07N 52°59' E 004°21'1610.5
2016-Jun-25 06:33N 52°45' E 004°06'57 8.9
2016-Jun-25 00:10N 51°55' E 003°23'18 6.6
2016-Jun-24 21:26N 51°37' E 003°22'910.0
2016-Jun-24 20:33N 51°29' E 003°29'9 9.4
2016-Jun-24 19:33N 51°24' E 003°42'9 9.4
2016-Jun-24 18:33N 51°23' E 003°57'6 6.1
2016-Jun-24 17:33N 51°22' E 004°06'7 6.5
2016-Jun-24 16:33N 51°21' E 004°16'5 4.5
2016-Jun-24 15:33N 51°17' E 004°20'0 0.0
2016-Jun-24 14:33N 51°17' E 004°20'2 1.6
2016-Jun-24 13:33N 51°15' E 004°21'2 1.7
2016-Jun-24 12:27N 51°16' E 004°25'0 0.0
2016-Jun-24 11:26N 51°16' E 004°25'0 0.0
2016-Jun-24 10:27N 51°16' E 004°25'0 0.0
2016-Jun-24 09:31N 51°16' E 004°25'0 0.0
2016-Jun-24 08:33N 51°16' E 004°25'0 0.0
2016-Jun-24 07:31N 51°16' E 004°25'0 0.0
2016-Jun-24 04:33N 51°16' E 004°25'0 0.0
2016-Jun-24 03:32N 51°16' E 004°25'0 0.0
2016-Jun-24 02:25N 51°16' E 004°25'0 0.0
2016-Jun-24 01:32N 51°16' E 004°25'0 0.0
2016-Jun-24 00:31N 51°16' E 004°25'0 0.0
2016-Jun-23 23:29N 51°16' E 004°25'0 0.0
2016-Jun-23 22:31N 51°16' E 004°25'0 0.0
2016-Jun-23 21:29N 51°16' E 004°25'0 0.0
2016-Jun-23 20:33N 51°16' E 004°25'0 0.0
2016-Jun-23 19:28N 51°16' E 004°25'0 0.0
2016-Jun-23 18:33N 51°16' E 004°25'0 0.0
2016-Jun-23 17:33N 51°16' E 004°25'0 0.0
2016-Jun-23 16:33N 51°16' E 004°25'0 0.0
2016-Jun-23 15:26N 51°16' E 004°25'0 0.0
2016-Jun-23 14:31N 51°16' E 004°25'0 0.0
2016-Jun-23 13:31N 51°16' E 004°25'0 0.0
2016-Jun-23 12:32N 51°16' E 004°25'0 0.0
2016-Jun-23 11:26N 51°16' E 004°25'0 0.0
2016-Jun-23 10:33N 51°16' E 004°25'2 1.5
2016-Jun-23 09:33N 51°14' E 004°26'4 4.1
2016-Jun-23 08:33N 51°14' E 004°32'1 0.1
2016-Jun-22 20:21N 51°13' E 004°33'0 0.0
2016-Jun-22 03:16N 51°13' E 004°33'10 0.2
2016-Jun-19 23:21N 51°10' E 004°48'6 7.1
2016-Jun-19 22:31N 51°12' E 004°39'5 4.8
2016-Jun-19 21:33N 51°14' E 004°32'1 0.7
2016-Jun-19 20:30N 51°14' E 004°31'4 3.8
2016-Jun-19 19:33N 51°14' E 004°26'2 1.8
2016-Jun-19 18:31N 51°15' E 004°23'0 0.0
2016-Jun-19 17:27N 51°15' E 004°23'0 0.0
2016-Jun-19 16:31N 51°15' E 004°23'0 0.0
2016-Jun-19 15:31N 51°15' E 004°23'0 0.0
2016-Jun-19 14:30N 51°15' E 004°23'0 0.0
2016-Jun-19 13:30N 51°15' E 004°23'0 0.0
2016-Jun-19 12:29N 51°15' E 004°23'0 0.0
2016-Jun-19 11:31N 51°15' E 004°23'0 0.0
2016-Jun-19 10:29N 51°15' E 004°23'0 0.0
2016-Jun-19 09:32N 51°15' E 004°23'0 0.0
2016-Jun-19 08:27N 51°15' E 004°23'0 0.0
2016-Jun-19 07:32N 51°15' E 004°23'0 0.0
2016-Jun-19 06:32N 51°15' E 004°23'0 0.0
2016-Jun-19 05:32N 51°15' E 004°23'0 0.0
2016-Jun-19 04:28N 51°15' E 004°23'0 0.0
2016-Jun-19 03:33N 51°15' E 004°23'0 0.0
2016-Jun-19 02:28N 51°15' E 004°23'0 0.0
2016-Jun-19 01:32N 51°15' E 004°23'0 0.0
2016-Jun-19 00:26N 51°15' E 004°23'0 0.0
2016-Jun-18 23:31N 51°15' E 004°23'0 0.0
2016-Jun-18 22:26N 51°15' E 004°23'0 0.0
2016-Jun-18 21:31N 51°15' E 004°23'0 0.0
2016-Jun-18 20:26N 51°15' E 004°23'0 0.0
2016-Jun-18 19:31N 51°15' E 004°23'0 0.0
2016-Jun-18 18:30N 51°15' E 004°23'0 0.0
2016-Jun-18 17:31N 51°15' E 004°23'0 0.0
2016-Jun-18 16:34N 51°15' E 004°23'2 2.5
2016-Jun-18 15:33N 51°17' E 004°20'1 1.2
2016-Jun-18 14:33N 51°17' E 004°19'4 4.0
2016-Jun-18 13:34N 51°21' E 004°15'7 7.0
2016-Jun-18 12:34N 51°22' E 004°04'6 6.3
2016-Jun-18 11:33N 51°24' E 003°54'1010.3
2016-Jun-18 10:33N 51°25' E 003°38'1110.8
2016-Jun-18 09:33N 51°32' E 003°25'134 7.3
2016-Jun-17 15:14N 53°33' E 005°01'5 7.0
2016-Jun-17 14:33N 53°35' E 005°09'8 8.4
2016-Jun-17 13:33N 53°38' E 005°22'1010.0
2016-Jun-17 12:33N 53°41' E 005°38'1010.5
2016-Jun-17 11:33N 53°44' E 005°55'1010.4
2016-Jun-17 10:33N 53°47' E 006°12'10 9.9
2016-Jun-17 09:33N 53°50' E 006°28'9 9.4
2016-Jun-17 08:33N 53°52' E 006°43'9 8.7
2016-Jun-17 07:33N 53°54' E 006°58'9 8.6
2016-Jun-17 06:33N 53°56' E 007°12'8 8.3
2016-Jun-17 05:31N 53°58' E 007°26'8 8.7
2016-Jun-17 04:33N 54°02' E 007°39'9 9.2
2016-Jun-17 03:33N 54°01' E 007°55'1010.0
2016-Jun-17 02:33N 54°01' E 008°12'1211.7
2016-Jun-17 01:33N 53°58' E 008°31'1211.8
2016-Jun-17 00:33N 53°51' E 008°47'1010.3
2016-Jun-16 23:34N 53°52' E 009°04'4 3.6
2016-Jun-16 22:34N 53°54' E 009°09'0 0.3
2016-Jun-16 21:33N 53°54' E 009°10'0 0.0
2016-Jun-16 20:33N 53°54' E 009°10'0 0.0
2016-Jun-16 19:33N 53°54' E 009°10'0 0.0
2016-Jun-16 18:28N 53°54' E 009°10'0 0.0
2016-Jun-16 17:32N 53°54' E 009°10'0 0.0
2016-Jun-16 16:34N 53°54' E 009°10'5 5.3
2016-Jun-16 15:33N 53°58' E 009°16'32 6.4
2016-Jun-16 10:30N 54°21' E 009°56'7 7.8
2016-Jun-16 09:33N 54°22' E 010°08'  

Dump ship's entire track history